sensor_id;sensor_type;location;lat;lon;timestamp;temperature;humidity
14099;DHT22;7126;48.458;7.930;2024-02-21T00:00:39;7.10;99.90
14099;DHT22;7126;48.458;7.930;2024-02-21T00:03:05;7.00;99.90
14099;DHT22;7126;48.458;7.930;2024-02-21T00:05:31;7.00;99.90
14099;DHT22;7126;48.458;7.930;2024-02-21T00:07:59;7.00;99.90
14099;DHT22;7126;48.458;7.930;2024-02-21T00:10:24;7.10;99.90
14099;DHT22;7126;48.458;7.930;2024-02-21T00:12:51;7.10;99.90
14099;DHT22;7126;48.458;7.930;2024-02-21T00:15:16;7.00;99.90
14099;DHT22;7126;48.458;7.930;2024-02-21T00:17:45;7.10;99.90
14099;DHT22;7126;48.458;7.930;2024-02-21T00:20:11;7.00;99.90
14099;DHT22;7126;48.458;7.930;2024-02-21T00:22:37;6.90;99.90
14099;DHT22;7126;48.458;7.930;2024-02-21T00:25:03;6.90;99.90
14099;DHT22;7126;48.458;7.930;2024-02-21T00:27:28;6.90;99.90
14099;DHT22;7126;48.458;7.930;2024-02-21T00:29:54;6.90;99.90
14099;DHT22;7126;48.458;7.930;2024-02-21T00:32:19;6.90;99.90
14099;DHT22;7126;48.458;7.930;2024-02-21T00:34:46;6.90;99.90
14099;DHT22;7126;48.458;7.930;2024-02-21T00:37:11;6.90;99.90
14099;DHT22;7126;48.458;7.930;2024-02-21T00:39:37;6.90;99.90
14099;DHT22;7126;48.458;7.930;2024-02-21T00:42:02;6.90;99.90
14099;DHT22;7126;48.458;7.930;2024-02-21T00:44:28;6.90;99.90
14099;DHT22;7126;48.458;7.930;2024-02-21T00:46:54;6.90;99.90
14099;DHT22;7126;48.458;7.930;2024-02-21T00:49:19;6.90;99.90
14099;DHT22;7126;48.458;7.930;2024-02-21T00:51:45;6.90;99.90
14099;DHT22;7126;48.458;7.930;2024-02-21T00:54:10;6.80;99.90
14099;DHT22;7126;48.458;7.930;2024-02-21T00:56:36;6.80;99.90
14099;DHT22;7126;48.458;7.930;2024-02-21T00:59:01;6.80;99.90
14099;DHT22;7126;48.458;7.930;2024-02-21T01:01:27;6.80;99.90
14099;DHT22;7126;48.458;7.930;2024-02-21T01:03:52;6.70;99.90
14099;DHT22;7126;48.458;7.930;2024-02-21T01:06:21;6.80;99.90
14099;DHT22;7126;48.458;7.930;2024-02-21T01:08:47;6.80;99.90
14099;DHT22;7126;48.458;7.930;2024-02-21T01:11:16;6.80;99.90
14099;DHT22;7126;48.458;7.930;2024-02-21T01:13:42;6.80;99.90
14099;DHT22;7126;48.458;7.930;2024-02-21T01:16:07;6.80;99.90
14099;DHT22;7126;48.458;7.930;2024-02-21T01:18:34;6.80;99.90
14099;DHT22;7126;48.458;7.930;2024-02-21T01:20:59;6.80;99.90
14099;DHT22;7126;48.458;7.930;2024-02-21T01:23:25;6.80;99.90
14099;DHT22;7126;48.458;7.930;2024-02-21T01:25:51;6.80;99.90
14099;DHT22;7126;48.458;7.930;2024-02-21T01:28:17;6.80;99.90
14099;DHT22;7126;48.458;7.930;2024-02-21T01:30:43;6.80;99.90
14099;DHT22;7126;48.458;7.930;2024-02-21T01:33:08;6.80;99.90
14099;DHT22;7126;48.458;7.930;2024-02-21T01:35:35;6.90;99.90
14099;DHT22;7126;48.458;7.930;2024-02-21T01:38:01;6.80;99.90
14099;DHT22;7126;48.458;7.930;2024-02-21T01:40:26;6.80;99.90
14099;DHT22;7126;48.458;7.930;2024-02-21T01:42:55;6.80;99.90
14099;DHT22;7126;48.458;7.930;2024-02-21T01:45:21;6.80;99.90
14099;DHT22;7126;48.458;7.930;2024-02-21T01:47:47;6.90;99.90
14099;DHT22;7126;48.458;7.930;2024-02-21T01:50:14;6.90;99.90
14099;DHT22;7126;48.458;7.930;2024-02-21T01:52:41;6.90;99.90
14099;DHT22;7126;48.458;7.930;2024-02-21T01:55:08;6.90;99.90
14099;DHT22;7126;48.458;7.930;2024-02-21T01:57:35;6.90;99.90
14099;DHT22;7126;48.458;7.930;2024-02-21T02:00:01;7.00;99.90
14099;DHT22;7126;48.458;7.930;2024-02-21T02:02:26;7.00;99.90
14099;DHT22;7126;48.458;7.930;2024-02-21T02:04:52;6.90;99.90
14099;DHT22;7126;48.458;7.930;2024-02-21T02:07:18;6.90;99.90
14099;DHT22;7126;48.458;7.930;2024-02-21T02:09:44;6.90;99.90
14099;DHT22;7126;48.458;7.930;2024-02-21T02:12:09;6.90;99.90
14099;DHT22;7126;48.458;7.930;2024-02-21T02:14:35;7.00;99.90
14099;DHT22;7126;48.458;7.930;2024-02-21T02:17:00;6.90;99.90
14099;DHT22;7126;48.458;7.930;2024-02-21T02:19:26;6.90;99.90
14099;DHT22;7126;48.458;7.930;2024-02-21T02:21:56;7.00;99.90
14099;DHT22;7126;48.458;7.930;2024-02-21T02:24:25;7.00;99.90
14099;DHT22;7126;48.458;7.930;2024-02-21T02:26:51;7.00;99.90
14099;DHT22;7126;48.458;7.930;2024-02-21T02:29:17;7.10;99.90
14099;DHT22;7126;48.458;7.930;2024-02-21T02:31:42;7.10;99.90
14099;DHT22;7126;48.458;7.930;2024-02-21T02:34:08;7.10;99.90
14099;DHT22;7126;48.458;7.930;2024-02-21T02:36:33;7.00;99.90
14099;DHT22;7126;48.458;7.930;2024-02-21T02:38:59;7.00;99.90
14099;DHT22;7126;48.458;7.930;2024-02-21T02:41:25;7.00;99.90
14099;DHT22;7126;48.458;7.930;2024-02-21T02:43:50;7.00;99.90
14099;DHT22;7126;48.458;7.930;2024-02-21T02:46:16;7.00;99.90
14099;DHT22;7126;48.458;7.930;2024-02-21T02:48:42;6.90;99.90
14099;DHT22;7126;48.458;7.930;2024-02-21T02:51:07;6.90;99.90
14099;DHT22;7126;48.458;7.930;2024-02-21T02:53:32;6.90;99.90
14099;DHT22;7126;48.458;7.930;2024-02-21T02:55:58;6.90;99.90
14099;DHT22;7126;48.458;7.930;2024-02-21T02:58:23;6.90;99.90
14099;DHT22;7126;48.458;7.930;2024-02-21T03:00:49;6.90;99.90
14099;DHT22;7126;48.458;7.930;2024-02-21T03:03:15;6.90;99.90
14099;DHT22;7126;48.458;7.930;2024-02-21T03:05:40;6.90;99.90
14099;DHT22;7126;48.458;7.930;2024-02-21T03:08:06;6.90;99.90
14099;DHT22;7126;48.458;7.930;2024-02-21T03:10:33;6.90;99.90
14099;DHT22;7126;48.458;7.930;2024-02-21T03:12:58;7.00;99.90
14099;DHT22;7126;48.458;7.930;2024-02-21T03:15:24;7.00;99.90
14099;DHT22;7126;48.458;7.930;2024-02-21T03:17:50;7.00;99.90
14099;DHT22;7126;48.458;7.930;2024-02-21T03:20:15;7.00;99.90
14099;DHT22;7126;48.458;7.930;2024-02-21T03:22:41;7.00;99.90
14099;DHT22;7126;48.458;7.930;2024-02-21T03:25:08;6.90;99.90
14099;DHT22;7126;48.458;7.930;2024-02-21T03:27:33;6.90;99.90
14099;DHT22;7126;48.458;7.930;2024-02-21T03:29:59;6.90;99.90
14099;DHT22;7126;48.458;7.930;2024-02-21T03:32:24;6.80;99.90
14099;DHT22;7126;48.458;7.930;2024-02-21T03:34:50;6.80;99.90
14099;DHT22;7126;48.458;7.930;2024-02-21T03:37:15;6.70;99.90
14099;DHT22;7126;48.458;7.930;2024-02-21T03:39:41;6.80;99.90
14099;DHT22;7126;48.458;7.930;2024-02-21T03:42:07;6.70;99.90
14099;DHT22;7126;48.458;7.930;2024-02-21T03:44:33;6.70;99.90
14099;DHT22;7126;48.458;7.930;2024-02-21T03:46:59;6.70;99.90
14099;DHT22;7126;48.458;7.930;2024-02-21T03:49:25;6.70;99.90
14099;DHT22;7126;48.458;7.930;2024-02-21T03:51:51;6.60;99.90
14099;DHT22;7126;48.458;7.930;2024-02-21T03:54:16;6.70;99.90
14099;DHT22;7126;48.458;7.930;2024-02-21T03:56:42;6.70;99.90
14099;DHT22;7126;48.458;7.930;2024-02-21T03:59:08;6.60;99.90
14099;DHT22;7126;48.458;7.930;2024-02-21T04:01:37;6.60;99.90
14099;DHT22;7126;48.458;7.930;2024-02-21T04:04:02;6.50;99.90
14099;DHT22;7126;48.458;7.930;2024-02-21T04:06:28;6.50;99.90
14099;DHT22;7126;48.458;7.930;2024-02-21T04:08:54;6.50;99.90
14099;DHT22;7126;48.458;7.930;2024-02-21T04:11:19;6.50;99.90
14099;DHT22;7126;48.458;7.930;2024-02-21T04:13:45;6.50;99.90
14099;DHT22;7126;48.458;7.930;2024-02-21T04:16:14;6.40;99.90
14099;DHT22;7126;48.458;7.930;2024-02-21T04:18:40;6.40;99.90
14099;DHT22;7126;48.458;7.930;2024-02-21T04:21:05;6.40;99.90
14099;DHT22;7126;48.458;7.930;2024-02-21T04:23:31;6.40;99.90
14099;DHT22;7126;48.458;7.930;2024-02-21T04:25:56;6.30;99.90
14099;DHT22;7126;48.458;7.930;2024-02-21T04:28:22;6.30;99.90
14099;DHT22;7126;48.458;7.930;2024-02-21T04:30:47;6.40;99.90
14099;DHT22;7126;48.458;7.930;2024-02-21T04:33:13;6.40;99.90
14099;DHT22;7126;48.458;7.930;2024-02-21T04:35:38;6.40;99.90
14099;DHT22;7126;48.458;7.930;2024-02-21T04:38:04;6.40;99.90
14099;DHT22;7126;48.458;7.930;2024-02-21T04:40:30;6.40;99.90
14099;DHT22;7126;48.458;7.930;2024-02-21T04:42:56;6.40;99.90
14099;DHT22;7126;48.458;7.930;2024-02-21T04:45:22;6.50;99.90
14099;DHT22;7126;48.458;7.930;2024-02-21T04:47:48;6.50;99.90
14099;DHT22;7126;48.458;7.930;2024-02-21T04:50:13;6.50;99.90
14099;DHT22;7126;48.458;7.930;2024-02-21T04:52:39;6.40;99.90
14099;DHT22;7126;48.458;7.930;2024-02-21T04:55:04;6.40;99.90
14099;DHT22;7126;48.458;7.930;2024-02-21T04:57:30;6.30;99.90
14099;DHT22;7126;48.458;7.930;2024-02-21T04:59:55;6.20;99.90
14099;DHT22;7126;48.458;7.930;2024-02-21T05:02:21;6.20;99.90
14099;DHT22;7126;48.458;7.930;2024-02-21T05:04:49;6.10;99.90
14099;DHT22;7126;48.458;7.930;2024-02-21T05:07:15;6.20;99.90
14099;DHT22;7126;48.458;7.930;2024-02-21T05:09:42;6.20;99.90
14099;DHT22;7126;48.458;7.930;2024-02-21T05:12:08;6.20;99.90
14099;DHT22;7126;48.458;7.930;2024-02-21T05:14:33;6.20;99.90
14099;DHT22;7126;48.458;7.930;2024-02-21T05:16:59;6.20;99.90
14099;DHT22;7126;48.458;7.930;2024-02-21T05:19:25;6.20;99.90
14099;DHT22;7126;48.458;7.930;2024-02-21T05:21:50;6.10;99.90
14099;DHT22;7126;48.458;7.930;2024-02-21T05:24:16;6.10;99.90
14099;DHT22;7126;48.458;7.930;2024-02-21T05:26:41;6.10;99.90
14099;DHT22;7126;48.458;7.930;2024-02-21T05:29:07;6.10;99.90
14099;DHT22;7126;48.458;7.930;2024-02-21T05:34:16;6.00;99.90
14099;DHT22;7126;48.458;7.930;2024-02-21T05:36:42;6.00;99.90
14099;DHT22;7126;48.458;7.930;2024-02-21T05:39:07;6.10;99.90
14099;DHT22;7126;48.458;7.930;2024-02-21T05:41:33;6.00;99.90
14099;DHT22;7126;48.458;7.930;2024-02-21T05:43:58;5.90;99.90
14099;DHT22;7126;48.458;7.930;2024-02-21T05:46:24;5.90;99.90
14099;DHT22;7126;48.458;7.930;2024-02-21T05:48:50;5.90;99.90
14099;DHT22;7126;48.458;7.930;2024-02-21T05:51:15;5.90;99.90
14099;DHT22;7126;48.458;7.930;2024-02-21T05:53:41;5.90;99.90
14099;DHT22;7126;48.458;7.930;2024-02-21T05:56:13;5.90;99.90
14099;DHT22;7126;48.458;7.930;2024-02-21T05:58:39;5.80;99.90
14099;DHT22;7126;48.458;7.930;2024-02-21T06:01:05;5.80;99.90
14099;DHT22;7126;48.458;7.930;2024-02-21T06:03:32;5.80;99.90
14099;DHT22;7126;48.458;7.930;2024-02-21T06:05:58;5.80;99.90
14099;DHT22;7126;48.458;7.930;2024-02-21T06:08:24;5.80;99.90
14099;DHT22;7126;48.458;7.930;2024-02-21T06:10:49;5.70;99.90
14099;DHT22;7126;48.458;7.930;2024-02-21T06:13:19;5.70;99.90
14099;DHT22;7126;48.458;7.930;2024-02-21T06:15:46;5.70;99.90
14099;DHT22;7126;48.458;7.930;2024-02-21T06:18:12;5.70;99.90
14099;DHT22;7126;48.458;7.930;2024-02-21T06:20:37;5.70;99.90
14099;DHT22;7126;48.458;7.930;2024-02-21T06:23:06;5.70;99.90
14099;DHT22;7126;48.458;7.930;2024-02-21T06:25:31;5.70;99.90
14099;DHT22;7126;48.458;7.930;2024-02-21T06:27:56;5.70;99.90
14099;DHT22;7126;48.458;7.930;2024-02-21T06:30:22;5.60;99.90
14099;DHT22;7126;48.458;7.930;2024-02-21T06:32:47;5.60;99.90
14099;DHT22;7126;48.458;7.930;2024-02-21T06:35:13;5.60;99.90
14099;DHT22;7126;48.458;7.930;2024-02-21T06:37:38;5.50;99.90
14099;DHT22;7126;48.458;7.930;2024-02-21T06:40:05;5.60;99.90
14099;DHT22;7126;48.458;7.930;2024-02-21T06:42:30;5.60;99.90
14099;DHT22;7126;48.458;7.930;2024-02-21T06:44:56;5.60;99.90
14099;DHT22;7126;48.458;7.930;2024-02-21T06:47:22;5.60;99.90
14099;DHT22;7126;48.458;7.930;2024-02-21T06:49:51;5.60;99.90
14099;DHT22;7126;48.458;7.930;2024-02-21T06:52:19;5.60;99.90
14099;DHT22;7126;48.458;7.930;2024-02-21T06:54:46;5.60;99.90
14099;DHT22;7126;48.458;7.930;2024-02-21T06:57:12;5.60;99.90
14099;DHT22;7126;48.458;7.930;2024-02-21T06:59:38;5.60;99.90
14099;DHT22;7126;48.458;7.930;2024-02-21T07:02:04;5.60;99.90
14099;DHT22;7126;48.458;7.930;2024-02-21T07:04:29;5.70;99.90
14099;DHT22;7126;48.458;7.930;2024-02-21T07:06:55;5.60;99.90
14099;DHT22;7126;48.458;7.930;2024-02-21T07:09:20;5.60;99.90
14099;DHT22;7126;48.458;7.930;2024-02-21T07:11:45;5.60;99.90
14099;DHT22;7126;48.458;7.930;2024-02-21T07:14:11;5.70;99.90
14099;DHT22;7126;48.458;7.930;2024-02-21T07:16:36;5.70;99.90
14099;DHT22;7126;48.458;7.930;2024-02-21T07:19:02;5.70;99.90
14099;DHT22;7126;48.458;7.930;2024-02-21T07:21:28;5.70;99.90
14099;DHT22;7126;48.458;7.930;2024-02-21T07:23:53;5.70;99.90
14099;DHT22;7126;48.458;7.930;2024-02-21T07:26:19;5.70;99.90
14099;DHT22;7126;48.458;7.930;2024-02-21T07:28:44;5.70;99.90
14099;DHT22;7126;48.458;7.930;2024-02-21T07:31:10;5.80;99.90
14099;DHT22;7126;48.458;7.930;2024-02-21T07:33:35;5.80;99.90
14099;DHT22;7126;48.458;7.930;2024-02-21T07:36:05;5.90;99.90
14099;DHT22;7126;48.458;7.930;2024-02-21T07:38:30;6.00;99.90
14099;DHT22;7126;48.458;7.930;2024-02-21T07:40:56;6.10;99.90
14099;DHT22;7126;48.458;7.930;2024-02-21T07:43:21;6.10;99.90
14099;DHT22;7126;48.458;7.930;2024-02-21T07:45:47;6.20;99.90
14099;DHT22;7126;48.458;7.930;2024-02-21T07:48:13;6.20;99.90
14099;DHT22;7126;48.458;7.930;2024-02-21T07:50:38;6.20;99.90
14099;DHT22;7126;48.458;7.930;2024-02-21T07:53:04;6.20;99.90
14099;DHT22;7126;48.458;7.930;2024-02-21T07:55:29;6.30;99.90
14099;DHT22;7126;48.458;7.930;2024-02-21T07:57:55;6.30;99.90
14099;DHT22;7126;48.458;7.930;2024-02-21T08:00:21;6.40;99.90
14099;DHT22;7126;48.458;7.930;2024-02-21T08:02:47;6.40;99.90
14099;DHT22;7126;48.458;7.930;2024-02-21T08:05:12;6.40;99.90
14099;DHT22;7126;48.458;7.930;2024-02-21T08:07:38;6.50;99.90
14099;DHT22;7126;48.458;7.930;2024-02-21T08:10:04;6.40;99.90
14099;DHT22;7126;48.458;7.930;2024-02-21T08:12:32;6.50;99.90
14099;DHT22;7126;48.458;7.930;2024-02-21T08:14:58;6.50;99.90
14099;DHT22;7126;48.458;7.930;2024-02-21T08:17:23;6.60;99.90
14099;DHT22;7126;48.458;7.930;2024-02-21T08:19:49;6.60;99.90
14099;DHT22;7126;48.458;7.930;2024-02-21T08:22:15;6.70;99.90
14099;DHT22;7126;48.458;7.930;2024-02-21T08:24:40;6.80;99.90
14099;DHT22;7126;48.458;7.930;2024-02-21T08:27:06;6.80;99.90
14099;DHT22;7126;48.458;7.930;2024-02-21T08:29:31;6.80;99.90
14099;DHT22;7126;48.458;7.930;2024-02-21T08:31:57;6.80;99.90
14099;DHT22;7126;48.458;7.930;2024-02-21T08:34:22;6.70;99.90
14099;DHT22;7126;48.458;7.930;2024-02-21T08:36:48;6.70;99.90
14099;DHT22;7126;48.458;7.930;2024-02-21T08:39:13;6.80;99.90
14099;DHT22;7126;48.458;7.930;2024-02-21T08:41:42;6.80;99.90
14099;DHT22;7126;48.458;7.930;2024-02-21T08:44:07;6.80;99.90
14099;DHT22;7126;48.458;7.930;2024-02-21T08:46:33;6.90;99.90
14099;DHT22;7126;48.458;7.930;2024-02-21T08:48:58;7.00;99.90
14099;DHT22;7126;48.458;7.930;2024-02-21T08:51:24;7.10;99.90
14099;DHT22;7126;48.458;7.930;2024-02-21T08:53:49;7.20;99.90
14099;DHT22;7126;48.458;7.930;2024-02-21T08:56:15;7.30;99.90
14099;DHT22;7126;48.458;7.930;2024-02-21T08:58:41;7.40;99.90
14099;DHT22;7126;48.458;7.930;2024-02-21T09:01:07;7.40;99.90
14099;DHT22;7126;48.458;7.930;2024-02-21T09:03:37;7.50;99.90
14099;DHT22;7126;48.458;7.930;2024-02-21T09:06:05;7.50;99.90
14099;DHT22;7126;48.458;7.930;2024-02-21T09:08:30;7.60;99.90
14099;DHT22;7126;48.458;7.930;2024-02-21T09:10:56;7.60;99.90
14099;DHT22;7126;48.458;7.930;2024-02-21T09:13:22;7.70;99.90
14099;DHT22;7126;48.458;7.930;2024-02-21T09:15:48;7.70;99.90
14099;DHT22;7126;48.458;7.930;2024-02-21T09:18:14;7.70;99.90
14099;DHT22;7126;48.458;7.930;2024-02-21T09:20:40;7.80;99.90
14099;DHT22;7126;48.458;7.930;2024-02-21T09:23:05;7.80;99.90
14099;DHT22;7126;48.458;7.930;2024-02-21T09:25:31;7.90;99.90
14099;DHT22;7126;48.458;7.930;2024-02-21T09:27:57;8.00;99.90
14099;DHT22;7126;48.458;7.930;2024-02-21T09:30:23;8.10;99.90
14099;DHT22;7126;48.458;7.930;2024-02-21T09:32:49;8.30;99.90
14099;DHT22;7126;48.458;7.930;2024-02-21T09:35:15;8.40;99.90
14099;DHT22;7126;48.458;7.930;2024-02-21T09:37:40;8.50;99.90
14099;DHT22;7126;48.458;7.930;2024-02-21T09:40:07;8.50;99.90
14099;DHT22;7126;48.458;7.930;2024-02-21T09:42:40;8.60;99.90
14099;DHT22;7126;48.458;7.930;2024-02-21T09:45:09;8.80;99.90
14099;DHT22;7126;48.458;7.930;2024-02-21T09:50:43;8.90;99.90
14099;DHT22;7126;48.458;7.930;2024-02-21T09:53:11;9.00;99.90
14099;DHT22;7126;48.458;7.930;2024-02-21T09:55:38;9.00;99.90
14099;DHT22;7126;48.458;7.930;2024-02-21T09:58:05;9.10;99.90
14099;DHT22;7126;48.458;7.930;2024-02-21T10:00:31;9.30;99.90
14099;DHT22;7126;48.458;7.930;2024-02-21T10:02:58;9.40;99.90
14099;DHT22;7126;48.458;7.930;2024-02-21T10:05:23;9.50;99.90
14099;DHT22;7126;48.458;7.930;2024-02-21T10:07:51;9.60;99.90
14099;DHT22;7126;48.458;7.930;2024-02-21T10:10:16;9.70;99.90
14099;DHT22;7126;48.458;7.930;2024-02-21T10:12:49;9.70;99.90
14099;DHT22;7126;48.458;7.930;2024-02-21T10:15:20;9.80;99.90
14099;DHT22;7126;48.458;7.930;2024-02-21T10:17:45;9.90;99.90
14099;DHT22;7126;48.458;7.930;2024-02-21T10:20:12;10.00;99.90
14099;DHT22;7126;48.458;7.930;2024-02-21T10:22:38;10.10;99.90
14099;DHT22;7126;48.458;7.930;2024-02-21T10:27:33;10.20;99.90
14099;DHT22;7126;48.458;7.930;2024-02-21T10:29:59;10.30;99.90
14099;DHT22;7126;48.458;7.930;2024-02-21T10:32:24;10.30;99.90
14099;DHT22;7126;48.458;7.930;2024-02-21T10:35:01;10.40;99.90
14099;DHT22;7126;48.458;7.930;2024-02-21T10:37:27;10.40;99.90
14099;DHT22;7126;48.458;7.930;2024-02-21T10:39:53;10.50;99.90
14099;DHT22;7126;48.458;7.930;2024-02-21T10:42:21;10.60;99.90
14099;DHT22;7126;48.458;7.930;2024-02-21T10:44:51;10.70;99.90
14099;DHT22;7126;48.458;7.930;2024-02-21T10:47:17;10.90;99.90
14099;DHT22;7126;48.458;7.930;2024-02-21T10:49:49;10.90;99.90
14099;DHT22;7126;48.458;7.930;2024-02-21T10:52:51;11.10;99.90
14099;DHT22;7126;48.458;7.930;2024-02-21T10:55:26;11.20;99.90
14099;DHT22;7126;48.458;7.930;2024-02-21T10:57:56;11.30;99.90
14099;DHT22;7126;48.458;7.930;2024-02-21T11:00:23;11.40;99.90
14099;DHT22;7126;48.458;7.930;2024-02-21T11:02:56;11.50;99.90
14099;DHT22;7126;48.458;7.930;2024-02-21T11:05:23;11.60;99.90
14099;DHT22;7126;48.458;7.930;2024-02-21T11:07:49;11.60;99.90
14099;DHT22;7126;48.458;7.930;2024-02-21T11:10:23;11.60;99.90
14099;DHT22;7126;48.458;7.930;2024-02-21T11:12:48;11.70;99.90
14099;DHT22;7126;48.458;7.930;2024-02-21T11:15:15;11.80;99.90
14099;DHT22;7126;48.458;7.930;2024-02-21T11:17:40;11.90;99.90
14099;DHT22;7126;48.458;7.930;2024-02-21T11:20:13;11.90;99.90
14099;DHT22;7126;48.458;7.930;2024-02-21T11:22:42;12.00;99.90
14099;DHT22;7126;48.458;7.930;2024-02-21T11:25:08;12.10;99.90
14099;DHT22;7126;48.458;7.930;2024-02-21T11:27:37;12.10;99.90
14099;DHT22;7126;48.458;7.930;2024-02-21T11:30:05;12.20;99.90
14099;DHT22;7126;48.458;7.930;2024-02-21T11:32:31;12.20;99.90
14099;DHT22;7126;48.458;7.930;2024-02-21T11:34:58;12.20;99.90
14099;DHT22;7126;48.458;7.930;2024-02-21T11:37:27;12.20;99.90
14099;DHT22;7126;48.458;7.930;2024-02-21T11:39:56;12.30;99.90
14099;DHT22;7126;48.458;7.930;2024-02-21T11:42:22;12.30;99.90
14099;DHT22;7126;48.458;7.930;2024-02-21T11:44:48;12.30;99.90
14099;DHT22;7126;48.458;7.930;2024-02-21T11:47:14;12.30;99.90
14099;DHT22;7126;48.458;7.930;2024-02-21T11:49:47;12.40;99.90
14099;DHT22;7126;48.458;7.930;2024-02-21T11:52:14;12.40;99.90
14099;DHT22;7126;48.458;7.930;2024-02-21T11:54:45;12.50;99.90
14099;DHT22;7126;48.458;7.930;2024-02-21T11:57:11;12.50;99.90
14099;DHT22;7126;48.458;7.930;2024-02-21T11:59:39;12.50;99.90
14099;DHT22;7126;48.458;7.930;2024-02-21T12:02:05;12.60;99.90
14099;DHT22;7126;48.458;7.930;2024-02-21T12:04:30;12.60;99.90
14099;DHT22;7126;48.458;7.930;2024-02-21T12:06:57;12.60;99.90
14099;DHT22;7126;48.458;7.930;2024-02-21T12:09:24;12.60;99.90
14099;DHT22;7126;48.458;7.930;2024-02-21T12:12:00;12.60;99.90
14099;DHT22;7126;48.458;7.930;2024-02-21T12:14:29;12.60;99.90
14099;DHT22;7126;48.458;7.930;2024-02-21T12:16:55;12.70;99.90
14099;DHT22;7126;48.458;7.930;2024-02-21T12:19:21;12.60;99.90
14099;DHT22;7126;48.458;7.930;2024-02-21T12:21:48;12.60;99.90
14099;DHT22;7126;48.458;7.930;2024-02-21T12:24:22;12.60;99.90
14099;DHT22;7126;48.458;7.930;2024-02-21T12:26:49;12.60;99.90
14099;DHT22;7126;48.458;7.930;2024-02-21T12:29:15;12.50;99.90
14099;DHT22;7126;48.458;7.930;2024-02-21T12:31:41;12.50;99.90
14099;DHT22;7126;48.458;7.930;2024-02-21T12:34:06;12.60;99.90
14099;DHT22;7126;48.458;7.930;2024-02-21T12:36:32;12.60;99.90
14099;DHT22;7126;48.458;7.930;2024-02-21T12:38:59;12.60;99.90
14099;DHT22;7126;48.458;7.930;2024-02-21T12:41:25;12.50;99.90
14099;DHT22;7126;48.458;7.930;2024-02-21T12:43:52;12.50;99.90
14099;DHT22;7126;48.458;7.930;2024-02-21T12:46:18;12.60;99.90
14099;DHT22;7126;48.458;7.930;2024-02-21T12:48:43;12.60;99.90
14099;DHT22;7126;48.458;7.930;2024-02-21T12:51:09;12.60;99.90
14099;DHT22;7126;48.458;7.930;2024-02-21T12:53:34;12.60;99.90
14099;DHT22;7126;48.458;7.930;2024-02-21T12:56:00;12.60;99.90
14099;DHT22;7126;48.458;7.930;2024-02-21T12:58:25;12.60;99.90
14099;DHT22;7126;48.458;7.930;2024-02-21T13:00:51;12.60;99.90
14099;DHT22;7126;48.458;7.930;2024-02-21T13:03:17;12.60;99.90
14099;DHT22;7126;48.458;7.930;2024-02-21T13:05:42;12.50;99.90
14099;DHT22;7126;48.458;7.930;2024-02-21T13:08:09;12.50;99.90
14099;DHT22;7126;48.458;7.930;2024-02-21T13:10:34;12.40;99.90
14099;DHT22;7126;48.458;7.930;2024-02-21T13:13:01;12.30;99.90
14099;DHT22;7126;48.458;7.930;2024-02-21T13:15:27;12.30;99.90
14099;DHT22;7126;48.458;7.930;2024-02-21T13:17:53;12.40;99.90
14099;DHT22;7126;48.458;7.930;2024-02-21T13:20:19;12.30;99.90
14099;DHT22;7126;48.458;7.930;2024-02-21T13:22:45;12.30;99.90
14099;DHT22;7126;48.458;7.930;2024-02-21T13:25:10;12.30;99.90
14099;DHT22;7126;48.458;7.930;2024-02-21T13:27:36;12.30;99.90
14099;DHT22;7126;48.458;7.930;2024-02-21T13:30:02;12.40;99.90
14099;DHT22;7126;48.458;7.930;2024-02-21T13:32:31;12.50;99.90
14099;DHT22;7126;48.458;7.930;2024-02-21T13:34:57;12.50;99.90
14099;DHT22;7126;48.458;7.930;2024-02-21T13:37:25;12.50;99.90
14099;DHT22;7126;48.458;7.930;2024-02-21T13:39:52;12.50;99.90
14099;DHT22;7126;48.458;7.930;2024-02-21T13:42:17;12.50;99.90
14099;DHT22;7126;48.458;7.930;2024-02-21T13:44:44;12.60;99.90
14099;DHT22;7126;48.458;7.930;2024-02-21T13:47:10;12.60;99.90
14099;DHT22;7126;48.458;7.930;2024-02-21T13:49:38;12.60;99.90
14099;DHT22;7126;48.458;7.930;2024-02-21T13:52:04;12.70;99.90
14099;DHT22;7126;48.458;7.930;2024-02-21T13:54:30;12.60;99.90
14099;DHT22;7126;48.458;7.930;2024-02-21T13:56:55;12.70;99.90
14099;DHT22;7126;48.458;7.930;2024-02-21T13:59:21;12.70;99.90
14099;DHT22;7126;48.458;7.930;2024-02-21T14:01:46;12.80;99.90
14099;DHT22;7126;48.458;7.930;2024-02-21T14:04:12;12.80;99.90
14099;DHT22;7126;48.458;7.930;2024-02-21T14:06:37;12.90;99.90
14099;DHT22;7126;48.458;7.930;2024-02-21T14:09:08;12.90;99.90
14099;DHT22;7126;48.458;7.930;2024-02-21T14:11:34;12.90;99.90
14099;DHT22;7126;48.458;7.930;2024-02-21T14:13:59;12.90;99.90
14099;DHT22;7126;48.458;7.930;2024-02-21T14:16:25;12.90;99.90
14099;DHT22;7126;48.458;7.930;2024-02-21T14:18:51;12.90;99.90
14099;DHT22;7126;48.458;7.930;2024-02-21T14:21:16;12.90;99.90
14099;DHT22;7126;48.458;7.930;2024-02-21T14:23:42;12.90;99.90
14099;DHT22;7126;48.458;7.930;2024-02-21T14:26:08;12.90;99.90
14099;DHT22;7126;48.458;7.930;2024-02-21T14:28:34;12.80;99.90
14099;DHT22;7126;48.458;7.930;2024-02-21T14:31:00;12.80;99.90
14099;DHT22;7126;48.458;7.930;2024-02-21T14:33:26;12.80;99.90
14099;DHT22;7126;48.458;7.930;2024-02-21T14:35:52;12.80;99.90
14099;DHT22;7126;48.458;7.930;2024-02-21T14:38:18;12.80;99.90
14099;DHT22;7126;48.458;7.930;2024-02-21T14:40:44;12.80;99.90
14099;DHT22;7126;48.458;7.930;2024-02-21T14:43:10;12.80;99.90
14099;DHT22;7126;48.458;7.930;2024-02-21T14:45:35;12.70;99.90
14099;DHT22;7126;48.458;7.930;2024-02-21T14:48:01;12.70;99.90
14099;DHT22;7126;48.458;7.930;2024-02-21T14:50:26;12.70;99.90
14099;DHT22;7126;48.458;7.930;2024-02-21T14:52:52;12.70;99.90
14099;DHT22;7126;48.458;7.930;2024-02-21T14:55:17;12.60;99.90
14099;DHT22;7126;48.458;7.930;2024-02-21T14:57:43;12.60;99.90
14099;DHT22;7126;48.458;7.930;2024-02-21T15:00:10;12.60;99.90
14099;DHT22;7126;48.458;7.930;2024-02-21T15:02:37;12.60;99.90
14099;DHT22;7126;48.458;7.930;2024-02-21T15:05:02;12.50;99.90
14099;DHT22;7126;48.458;7.930;2024-02-21T15:07:33;12.50;99.90
14099;DHT22;7126;48.458;7.930;2024-02-21T15:09:59;12.50;99.90
14099;DHT22;7126;48.458;7.930;2024-02-21T15:12:25;12.50;99.90
14099;DHT22;7126;48.458;7.930;2024-02-21T15:14:51;12.60;99.90
14099;DHT22;7126;48.458;7.930;2024-02-21T15:17:17;12.50;99.90
14099;DHT22;7126;48.458;7.930;2024-02-21T15:19:43;12.50;99.90
14099;DHT22;7126;48.458;7.930;2024-02-21T15:22:11;12.50;99.90
14099;DHT22;7126;48.458;7.930;2024-02-21T15:24:40;12.50;99.90
14099;DHT22;7126;48.458;7.930;2024-02-21T15:27:07;12.50;99.90
14099;DHT22;7126;48.458;7.930;2024-02-21T15:29:34;12.50;99.90
14099;DHT22;7126;48.458;7.930;2024-02-21T15:32:01;12.50;99.90
14099;DHT22;7126;48.458;7.930;2024-02-21T15:34:27;12.50;99.90
14099;DHT22;7126;48.458;7.930;2024-02-21T15:36:53;12.40;99.90
14099;DHT22;7126;48.458;7.930;2024-02-21T15:39:18;12.40;99.90
14099;DHT22;7126;48.458;7.930;2024-02-21T15:41:44;12.40;99.90
14099;DHT22;7126;48.458;7.930;2024-02-21T15:44:09;12.30;99.90
14099;DHT22;7126;48.458;7.930;2024-02-21T15:46:35;12.30;99.90
14099;DHT22;7126;48.458;7.930;2024-02-21T15:49:02;12.30;99.90
14099;DHT22;7126;48.458;7.930;2024-02-21T15:51:28;12.30;99.90
14099;DHT22;7126;48.458;7.930;2024-02-21T15:53:55;12.30;99.90
14099;DHT22;7126;48.458;7.930;2024-02-21T15:56:21;12.30;99.90
14099;DHT22;7126;48.458;7.930;2024-02-21T15:58:46;12.30;99.90